sensor_id;sensor_type;location;lat;lon;timestamp;P1;durP1;ratioP1;P2;durP2;ratioP2
47383;SDS011;33129;52.232;5.192;2022-11-30T00:01:49;22.97;;;14.37;;
47383;SDS011;33129;52.232;5.192;2022-11-30T00:05:02;25.50;;;15.13;;
47383;SDS011;33129;52.232;5.192;2022-11-30T00:08:12;21.73;;;14.27;;
47383;SDS011;33129;52.232;5.192;2022-11-30T00:10:47;26.87;;;16.13;;
47383;SDS011;33129;52.232;5.192;2022-11-30T00:14:05;26.53;;;15.13;;
47383;SDS011;33129;52.232;5.192;2022-11-30T00:17:23;26.43;;;15.93;;
47383;SDS011;33129;52.232;5.192;2022-11-30T00:20:42;25.77;;;16.07;;
47383;SDS011;33129;52.232;5.192;2022-11-30T00:24:00;25.80;;;16.97;;
47383;SDS011;33129;52.232;5.192;2022-11-30T00:27:19;24.63;;;15.83;;
47383;SDS011;33129;52.232;5.192;2022-11-30T00:30:37;22.63;;;15.27;;
47383;SDS011;33129;52.232;5.192;2022-11-30T00:33:55;24.93;;;15.83;;
47383;SDS011;33129;52.232;5.192;2022-11-30T00:37:13;25.53;;;16.67;;
47383;SDS011;33129;52.232;5.192;2022-11-30T00:40:32;28.07;;;16.67;;
47383;SDS011;33129;52.232;5.192;2022-11-30T00:43:13;27.23;;;16.57;;
47383;SDS011;33129;52.232;5.192;2022-11-30T00:46:31;25.97;;;15.77;;
47383;SDS011;33129;52.232;5.192;2022-11-30T00:49:31;27.80;;;15.53;;
47383;SDS011;33129;52.232;5.192;2022-11-30T00:52:50;27.90;;;16.07;;
47383;SDS011;33129;52.232;5.192;2022-11-30T00:55:17;25.13;;;16.20;;
47383;SDS011;33129;52.232;5.192;2022-11-30T00:58:12;25.00;;;16.13;;
47383;SDS011;33129;52.232;5.192;2022-11-30T01:00:53;27.63;;;16.17;;
47383;SDS011;33129;52.232;5.192;2022-11-30T01:03:45;22.10;;;14.47;;
47383;SDS011;33129;52.232;5.192;2022-11-30T01:07:03;29.40;;;17.90;;
47383;SDS011;33129;52.232;5.192;2022-11-30T01:10:23;27.30;;;16.50;;
47383;SDS011;33129;52.232;5.192;2022-11-30T01:13:43;27.37;;;16.30;;
47383;SDS011;33129;52.232;5.192;2022-11-30T01:17:01;24.37;;;15.80;;
47383;SDS011;33129;52.232;5.192;2022-11-30T01:19:27;26.83;;;16.07;;
47383;SDS011;33129;52.232;5.192;2022-11-30T01:22:45;25.37;;;15.47;;
47383;SDS011;33129;52.232;5.192;2022-11-30T01:26:03;28.20;;;17.10;;
47383;SDS011;33129;52.232;5.192;2022-11-30T01:28:57;27.13;;;17.07;;
47383;SDS011;33129;52.232;5.192;2022-11-30T01:32:15;25.37;;;16.60;;
47383;SDS011;33129;52.232;5.192;2022-11-30T01:35:15;28.87;;;17.27;;
47383;SDS011;33129;52.232;5.192;2022-11-30T01:38:53;26.17;;;16.70;;
47383;SDS011;33129;52.232;5.192;2022-11-30T01:41:53;27.43;;;15.83;;
47383;SDS011;33129;52.232;5.192;2022-11-30T01:45:12;26.33;;;16.40;;
47383;SDS011;33129;52.232;5.192;2022-11-30T01:47:47;29.90;;;18.80;;
47383;SDS011;33129;52.232;5.192;2022-11-30T01:51:00;26.17;;;16.93;;
47383;SDS011;33129;52.232;5.192;2022-11-30T01:54:24;26.83;;;17.37;;
47383;SDS011;33129;52.232;5.192;2022-11-30T01:58:12;33.97;;;17.30;;
47383;SDS011;33129;52.232;5.192;2022-11-30T02:01:34;28.10;;;15.77;;
47383;SDS011;33129;52.232;5.192;2022-11-30T02:05:09;31.00;;;18.33;;
47383;SDS011;33129;52.232;5.192;2022-11-30T02:08:29;33.00;;;19.03;;
47383;SDS011;33129;52.232;5.192;2022-11-30T02:11:48;30.87;;;17.73;;
47383;SDS011;33129;52.232;5.192;2022-11-30T02:15:26;28.00;;;17.30;;
47383;SDS011;33129;52.232;5.192;2022-11-30T02:25:07;28.37;;;17.33;;
47383;SDS011;33129;52.232;5.192;2022-11-30T02:31:15;27.80;;;17.00;;
47383;SDS011;33129;52.232;5.192;2022-11-30T02:36:55;35.33;;;18.37;;
47383;SDS011;33129;52.232;5.192;2022-11-30T02:39:23;27.43;;;17.43;;
47383;SDS011;33129;52.232;5.192;2022-11-30T02:41:48;26.73;;;16.37;;
47383;SDS011;33129;52.232;5.192;2022-11-30T02:45:07;29.63;;;17.83;;
47383;SDS011;33129;52.232;5.192;2022-11-30T02:52:25;30.60;;;17.27;;
47383;SDS011;33129;52.232;5.192;2022-11-30T02:55:17;28.53;;;16.33;;
47383;SDS011;33129;52.232;5.192;2022-11-30T02:58:22;29.47;;;18.10;;
47383;SDS011;33129;52.232;5.192;2022-11-30T03:01:40;24.67;;;15.90;;
47383;SDS011;33129;52.232;5.192;2022-11-30T03:04:15;27.57;;;17.87;;
47383;SDS011;33129;52.232;5.192;2022-11-30T03:07:13;25.93;;;16.43;;
47383;SDS011;33129;52.232;5.192;2022-11-30T03:09:59;25.20;;;16.10;;
47383;SDS011;33129;52.232;5.192;2022-11-30T03:12:25;26.80;;;16.83;;
47383;SDS011;33129;52.232;5.192;2022-11-30T03:15:44;29.43;;;17.33;;
47383;SDS011;33129;52.232;5.192;2022-11-30T03:19:02;28.80;;;18.10;;
47383;SDS011;33129;52.232;5.192;2022-11-30T03:22:21;31.77;;;18.03;;
47383;SDS011;33129;52.232;5.192;2022-11-30T03:25:39;33.97;;;17.63;;
47383;SDS011;33129;52.232;5.192;2022-11-30T03:28:57;31.10;;;17.97;;
47383;SDS011;33129;52.232;5.192;2022-11-30T03:32:15;30.57;;;17.00;;
47383;SDS011;33129;52.232;5.192;2022-11-30T03:35:33;27.67;;;16.50;;
47383;SDS011;33129;52.232;5.192;2022-11-30T03:38:51;30.13;;;17.50;;
47383;SDS011;33129;52.232;5.192;2022-11-30T03:42:10;31.83;;;16.70;;
47383;SDS011;33129;52.232;5.192;2022-11-30T03:45:28;30.83;;;17.60;;
47383;SDS011;33129;52.232;5.192;2022-11-30T03:48:46;28.23;;;17.57;;
47383;SDS011;33129;52.232;5.192;2022-11-30T03:52:04;28.17;;;16.77;;
47383;SDS011;33129;52.232;5.192;2022-11-30T03:55:23;29.77;;;17.17;;
47383;SDS011;33129;52.232;5.192;2022-11-30T03:58:41;28.20;;;16.90;;
47383;SDS011;33129;52.232;5.192;2022-11-30T04:01:59;30.67;;;17.57;;
47383;SDS011;33129;52.232;5.192;2022-11-30T04:05:17;29.27;;;17.17;;
47383;SDS011;33129;52.232;5.192;2022-11-30T04:08:36;27.93;;;17.00;;
47383;SDS011;33129;52.232;5.192;2022-11-30T04:11:55;30.30;;;17.83;;
47383;SDS011;33129;52.232;5.192;2022-11-30T04:15:13;30.20;;;19.03;;
47383;SDS011;33129;52.232;5.192;2022-11-30T04:18:32;32.60;;;18.83;;
47383;SDS011;33129;52.232;5.192;2022-11-30T04:21:52;33.67;;;19.13;;
47383;SDS011;33129;52.232;5.192;2022-11-30T04:25:10;32.73;;;19.53;;
47383;SDS011;33129;52.232;5.192;2022-11-30T04:28:29;30.73;;;17.73;;
47383;SDS011;33129;52.232;5.192;2022-11-30T04:31:47;30.07;;;18.33;;
47383;SDS011;33129;52.232;5.192;2022-11-30T04:35:05;33.10;;;18.70;;
47383;SDS011;33129;52.232;5.192;2022-11-30T04:38:25;35.33;;;19.60;;
47383;SDS011;33129;52.232;5.192;2022-11-30T04:41:44;33.07;;;19.73;;
47383;SDS011;33129;52.232;5.192;2022-11-30T04:45:02;33.00;;;19.63;;
47383;SDS011;33129;52.232;5.192;2022-11-30T04:48:21;31.20;;;18.40;;
47383;SDS011;33129;52.232;5.192;2022-11-30T04:51:39;34.93;;;19.33;;
47383;SDS011;33129;52.232;5.192;2022-11-30T04:54:57;33.13;;;18.53;;
47383;SDS011;33129;52.232;5.192;2022-11-30T04:58:15;32.57;;;19.20;;
47383;SDS011;33129;52.232;5.192;2022-11-30T05:01:34;32.77;;;18.60;;
47383;SDS011;33129;52.232;5.192;2022-11-30T05:04:53;34.37;;;19.73;;
47383;SDS011;33129;52.232;5.192;2022-11-30T05:08:11;34.70;;;19.50;;
47383;SDS011;33129;52.232;5.192;2022-11-30T05:11:29;31.53;;;18.03;;
47383;SDS011;33129;52.232;5.192;2022-11-30T05:14:47;36.90;;;19.37;;
47383;SDS011;33129;52.232;5.192;2022-11-30T05:18:05;32.03;;;18.77;;
47383;SDS011;33129;52.232;5.192;2022-11-30T05:21:24;37.57;;;19.17;;
47383;SDS011;33129;52.232;5.192;2022-11-30T05:24:42;39.83;;;21.47;;
47383;SDS011;33129;52.232;5.192;2022-11-30T05:28:00;42.27;;;21.57;;
47383;SDS011;33129;52.232;5.192;2022-11-30T05:31:18;34.10;;;19.60;;
47383;SDS011;33129;52.232;5.192;2022-11-30T05:34:33;36.47;;;21.33;;
47383;SDS011;33129;52.232;5.192;2022-11-30T05:37:51;30.50;;;19.17;;
47383;SDS011;33129;52.232;5.192;2022-11-30T05:41:10;35.93;;;20.70;;
47383;SDS011;33129;52.232;5.192;2022-11-30T05:44:28;33.07;;;20.57;;
47383;SDS011;33129;52.232;5.192;2022-11-30T05:47:46;32.67;;;18.53;;
47383;SDS011;33129;52.232;5.192;2022-11-30T05:54:26;28.80;;;18.03;;
47383;SDS011;33129;52.232;5.192;2022-11-30T05:57:45;31.00;;;18.50;;
47383;SDS011;33129;52.232;5.192;2022-11-30T06:01:03;34.00;;;19.80;;
47383;SDS011;33129;52.232;5.192;2022-11-30T06:04:21;39.80;;;19.77;;
47383;SDS011;33129;52.232;5.192;2022-11-30T06:07:40;35.67;;;20.20;;
47383;SDS011;33129;52.232;5.192;2022-11-30T06:10:58;33.57;;;19.63;;
47383;SDS011;33129;52.232;5.192;2022-11-30T06:14:17;33.63;;;19.70;;
47383;SDS011;33129;52.232;5.192;2022-11-30T06:17:35;29.60;;;18.60;;
47383;SDS011;33129;52.232;5.192;2022-11-30T06:20:54;27.13;;;17.40;;
47383;SDS011;33129;52.232;5.192;2022-11-30T06:24:16;31.40;;;17.63;;
47383;SDS011;33129;52.232;5.192;2022-11-30T06:27:34;28.50;;;17.30;;
47383;SDS011;33129;52.232;5.192;2022-11-30T06:30:52;29.60;;;17.43;;
47383;SDS011;33129;52.232;5.192;2022-11-30T06:34:15;29.80;;;18.03;;
47383;SDS011;33129;52.232;5.192;2022-11-30T06:37:33;26.70;;;15.67;;
47383;SDS011;33129;52.232;5.192;2022-11-30T06:40:46;30.60;;;17.83;;
47383;SDS011;33129;52.232;5.192;2022-11-30T06:44:08;39.10;;;19.40;;
47383;SDS011;33129;52.232;5.192;2022-11-30T06:47:27;27.73;;;16.83;;
47383;SDS011;33129;52.232;5.192;2022-11-30T06:50:41;32.67;;;18.17;;
47383;SDS011;33129;52.232;5.192;2022-11-30T06:54:01;32.77;;;17.63;;
47383;SDS011;33129;52.232;5.192;2022-11-30T06:57:19;35.23;;;19.10;;
47383;SDS011;33129;52.232;5.192;2022-11-30T07:00:37;32.43;;;19.07;;
47383;SDS011;33129;52.232;5.192;2022-11-30T07:03:55;28.77;;;17.73;;
47383;SDS011;33129;52.232;5.192;2022-11-30T07:07:13;29.50;;;17.97;;
47383;SDS011;33129;52.232;5.192;2022-11-30T07:10:32;28.83;;;18.10;;
47383;SDS011;33129;52.232;5.192;2022-11-30T07:13:50;29.53;;;18.43;;
47383;SDS011;33129;52.232;5.192;2022-11-30T07:17:08;29.80;;;18.27;;
47383;SDS011;33129;52.232;5.192;2022-11-30T07:20:26;30.40;;;18.30;;
47383;SDS011;33129;52.232;5.192;2022-11-30T07:23:44;30.87;;;18.90;;
47383;SDS011;33129;52.232;5.192;2022-11-30T07:27:21;30.20;;;17.77;;
47383;SDS011;33129;52.232;5.192;2022-11-30T07:30:40;32.80;;;18.73;;
47383;SDS011;33129;52.232;5.192;2022-11-30T07:34:03;31.13;;;18.20;;
47383;SDS011;33129;52.232;5.192;2022-11-30T07:37:23;30.23;;;18.77;;
47383;SDS011;33129;52.232;5.192;2022-11-30T07:40:42;33.67;;;19.80;;
47383;SDS011;33129;52.232;5.192;2022-11-30T07:44:02;31.80;;;18.83;;
47383;SDS011;33129;52.232;5.192;2022-11-30T07:47:20;34.73;;;20.73;;
47383;SDS011;33129;52.232;5.192;2022-11-30T07:50:38;29.57;;;18.37;;
47383;SDS011;33129;52.232;5.192;2022-11-30T07:53:56;33.53;;;18.70;;
47383;SDS011;33129;52.232;5.192;2022-11-30T07:57:14;35.80;;;20.97;;
47383;SDS011;33129;52.232;5.192;2022-11-30T08:00:33;35.53;;;20.87;;
47383;SDS011;33129;52.232;5.192;2022-11-30T08:03:40;32.60;;;21.00;;
47383;SDS011;33129;52.232;5.192;2022-11-30T08:06:57;33.27;;;21.17;;
47383;SDS011;33129;52.232;5.192;2022-11-30T08:10:16;36.90;;;22.40;;
47383;SDS011;33129;52.232;5.192;2022-11-30T08:13:32;38.23;;;23.57;;
47383;SDS011;33129;52.232;5.192;2022-11-30T08:16:02;38.23;;;24.93;;
47383;SDS011;33129;52.232;5.192;2022-11-30T08:19:30;39.77;;;24.30;;
47383;SDS011;33129;52.232;5.192;2022-11-30T08:22:42;38.33;;;22.40;;
47383;SDS011;33129;52.232;5.192;2022-11-30T08:25:45;36.23;;;24.03;;
47383;SDS011;33129;52.232;5.192;2022-11-30T08:29:03;35.90;;;22.43;;
47383;SDS011;33129;52.232;5.192;2022-11-30T08:31:51;35.93;;;22.00;;
47383;SDS011;33129;52.232;5.192;2022-11-30T08:34:23;34.43;;;21.33;;
47383;SDS011;33129;52.232;5.192;2022-11-30T08:36:50;32.87;;;21.27;;
47383;SDS011;33129;52.232;5.192;2022-11-30T08:39:18;34.17;;;20.97;;
47383;SDS011;33129;52.232;5.192;2022-11-30T08:41:45;33.93;;;21.20;;
47383;SDS011;33129;52.232;5.192;2022-11-30T08:44:10;38.40;;;22.70;;
47383;SDS011;33129;52.232;5.192;2022-11-30T08:46:36;37.80;;;23.20;;
47383;SDS011;33129;52.232;5.192;2022-11-30T08:49:02;32.00;;;20.97;;
47383;SDS011;33129;52.232;5.192;2022-11-30T08:51:35;41.23;;;21.77;;
47383;SDS011;33129;52.232;5.192;2022-11-30T08:54:15;35.25;;;20.98;;
47383;SDS011;33129;52.232;5.192;2022-11-30T08:57:22;31.87;;;20.17;;
47383;SDS011;33129;52.232;5.192;2022-11-30T09:00:00;34.13;;;19.80;;
47383;SDS011;33129;52.232;5.192;2022-11-30T09:03:20;26.53;;;17.10;;
47383;SDS011;33129;52.232;5.192;2022-11-30T09:05:52;34.50;;;21.23;;
47383;SDS011;33129;52.232;5.192;2022-11-30T09:08:51;36.47;;;21.83;;
47383;SDS011;33129;52.232;5.192;2022-11-30T09:11:59;30.33;;;18.60;;
47383;SDS011;33129;52.232;5.192;2022-11-30T09:14:37;32.43;;;18.37;;
47383;SDS011;33129;52.232;5.192;2022-11-30T09:17:18;34.10;;;19.73;;
47383;SDS011;33129;52.232;5.192;2022-11-30T09:20:04;32.17;;;19.37;;
47383;SDS011;33129;52.232;5.192;2022-11-30T09:22:37;31.30;;;18.17;;
47383;SDS011;33129;52.232;5.192;2022-11-30T09:25:03;33.70;;;19.83;;
47383;SDS011;33129;52.232;5.192;2022-11-30T09:27:32;30.07;;;19.27;;
47383;SDS011;33129;52.232;5.192;2022-11-30T09:29:58;30.67;;;19.17;;
47383;SDS011;33129;52.232;5.192;2022-11-30T09:32:24;33.63;;;20.33;;
47383;SDS011;33129;52.232;5.192;2022-11-30T09:35:41;33.47;;;19.83;;
47383;SDS011;33129;52.232;5.192;2022-11-30T09:38:07;36.00;;;21.80;;
47383;SDS011;33129;52.232;5.192;2022-11-30T09:51:32;32.07;;;19.23;;
47383;SDS011;33129;52.232;5.192;2022-11-30T09:54:59;31.13;;;19.13;;
47383;SDS011;33129;52.232;5.192;2022-11-30T09:57:41;31.37;;;19.03;;
47383;SDS011;33129;52.232;5.192;2022-11-30T10:00:18;35.73;;;20.63;;
47383;SDS011;33129;52.232;5.192;2022-11-30T10:03:01;32.63;;;20.33;;
47383;SDS011;33129;52.232;5.192;2022-11-30T10:05:49;35.50;;;20.90;;
47383;SDS011;33129;52.232;5.192;2022-11-30T10:17:51;29.10;;;18.87;;
47383;SDS011;33129;52.232;5.192;2022-11-30T10:21:00;28.07;;;18.40;;
47383;SDS011;33129;52.232;5.192;2022-11-30T10:28:56;28.00;;;18.27;;
47383;SDS011;33129;52.232;5.192;2022-11-30T10:32:37;30.57;;;19.07;;
47383;SDS011;33129;52.232;5.192;2022-11-30T10:36:09;28.13;;;18.50;;
47383;SDS011;33129;52.232;5.192;2022-11-30T10:40:19;29.37;;;19.20;;
47383;SDS011;33129;52.232;5.192;2022-11-30T10:43:32;31.65;;;19.05;;
47383;SDS011;33129;52.232;5.192;2022-11-30T10:47:11;31.60;;;19.37;;
47383;SDS011;33129;52.232;5.192;2022-11-30T10:51:00;29.20;;;19.30;;
47383;SDS011;33129;52.232;5.192;2022-11-30T10:53:53;30.67;;;19.77;;
47383;SDS011;33129;52.232;5.192;2022-11-30T10:57:16;30.83;;;19.43;;
47383;SDS011;33129;52.232;5.192;2022-11-30T11:00:38;29.43;;;19.17;;
47383;SDS011;33129;52.232;5.192;2022-11-30T11:07:40;35.40;;;20.87;;
47383;SDS011;33129;52.232;5.192;2022-11-30T11:15:16;31.77;;;20.80;;
47383;SDS011;33129;52.232;5.192;2022-11-30T11:18:51;30.40;;;19.40;;
47383;SDS011;33129;52.232;5.192;2022-11-30T11:25:48;31.37;;;20.67;;
47383;SDS011;33129;52.232;5.192;2022-11-30T11:29:21;31.83;;;19.77;;
47383;SDS011;33129;52.232;5.192;2022-11-30T11:33:17;30.53;;;20.87;;
47383;SDS011;33129;52.232;5.192;2022-11-30T11:41:04;31.93;;;20.40;;
47383;SDS011;33129;52.232;5.192;2022-11-30T11:44:27;32.93;;;20.27;;
47383;SDS011;33129;52.232;5.192;2022-11-30T11:47:55;31.50;;;20.53;;
47383;SDS011;33129;52.232;5.192;2022-11-30T11:51:28;33.43;;;21.23;;
47383;SDS011;33129;52.232;5.192;2022-11-30T11:55:12;33.63;;;20.73;;
47383;SDS011;33129;52.232;5.192;2022-11-30T11:59:06;30.77;;;19.70;;
47383;SDS011;33129;52.232;5.192;2022-11-30T12:02:47;30.27;;;17.97;;
47383;SDS011;33129;52.232;5.192;2022-11-30T12:06:40;28.90;;;18.50;;
47383;SDS011;33129;52.232;5.192;2022-11-30T12:13:44;29.67;;;18.47;;
47383;SDS011;33129;52.232;5.192;2022-11-30T12:17:08;29.57;;;18.43;;
47383;SDS011;33129;52.232;5.192;2022-11-30T12:35:29;31.63;;;19.33;;
47383;SDS011;33129;52.232;5.192;2022-11-30T12:42:36;25.93;;;16.30;;
47383;SDS011;33129;52.232;5.192;2022-11-30T12:57:57;23.77;;;15.83;;
47383;SDS011;33129;52.232;5.192;2022-11-30T13:04:52;22.77;;;14.70;;
47383;SDS011;33129;52.232;5.192;2022-11-30T13:08:19;23.07;;;14.87;;
47383;SDS011;33129;52.232;5.192;2022-11-30T13:11:58;24.97;;;15.20;;
47383;SDS011;33129;52.232;5.192;2022-11-30T13:15:21;23.70;;;15.40;;
47383;SDS011;33129;52.232;5.192;2022-11-30T13:18:45;23.37;;;15.83;;
47383;SDS011;33129;52.232;5.192;2022-11-30T13:22:16;25.40;;;15.87;;
47383;SDS011;33129;52.232;5.192;2022-11-30T13:37:16;26.83;;;16.97;;
47383;SDS011;33129;52.232;5.192;2022-11-30T13:40:40;28.50;;;17.57;;
47383;SDS011;33129;52.232;5.192;2022-11-30T13:43:58;25.13;;;16.30;;
47383;SDS011;33129;52.232;5.192;2022-11-30T13:47:30;26.13;;;16.77;;
47383;SDS011;33129;52.232;5.192;2022-11-30T14:05:46;28.70;;;17.30;;
47383;SDS011;33129;52.232;5.192;2022-11-30T14:24:03;25.52;;;16.40;;
47383;SDS011;33129;52.232;5.192;2022-11-30T14:26:37;25.80;;;15.70;;
47383;SDS011;33129;52.232;5.192;2022-11-30T14:29:20;24.97;;;15.63;;
47383;SDS011;33129;52.232;5.192;2022-11-30T14:31:56;24.00;;;15.93;;
47383;SDS011;33129;52.232;5.192;2022-11-30T14:34:49;24.00;;;15.40;;
47383;SDS011;33129;52.232;5.192;2022-11-30T14:37:27;24.60;;;14.65;;
47383;SDS011;33129;52.232;5.192;2022-11-30T14:40:14;35.97;;;22.27;;
47383;SDS011;33129;52.232;5.192;2022-11-30T14:43:13;27.37;;;17.33;;
47383;SDS011;33129;52.232;5.192;2022-11-30T14:46:03;29.07;;;18.00;;
47383;SDS011;33129;52.232;5.192;2022-11-30T14:48:45;25.87;;;16.77;;
47383;SDS011;33129;52.232;5.192;2022-11-30T14:51:46;26.70;;;15.60;;
47383;SDS011;33129;52.232;5.192;2022-11-30T14:55:10;29.17;;;17.53;;
47383;SDS011;33129;52.232;5.192;2022-11-30T15:02:44;27.03;;;15.87;;
47383;SDS011;33129;52.232;5.192;2022-11-30T15:06:03;28.83;;;16.17;;
47383;SDS011;33129;52.232;5.192;2022-11-30T15:09:27;25.93;;;16.77;;
47383;SDS011;33129;52.232;5.192;2022-11-30T15:12:49;28.37;;;16.53;;
47383;SDS011;33129;52.232;5.192;2022-11-30T15:15:48;29.02;;;16.88;;
47383;SDS011;33129;52.232;5.192;2022-11-30T15:22:43;28.33;;;16.33;;
47383;SDS011;33129;52.232;5.192;2022-11-30T15:26:10;28.10;;;16.37;;
47383;SDS011;33129;52.232;5.192;2022-11-30T15:29:25;28.20;;;16.73;;
47383;SDS011;33129;52.232;5.192;2022-11-30T15:32:49;27.37;;;15.17;;
47383;SDS011;33129;52.232;5.192;2022-11-30T15:36:12;29.40;;;16.37;;
47383;SDS011;33129;52.232;5.192;2022-11-30T15:39:01;31.17;;;17.87;;
47383;SDS011;33129;52.232;5.192;2022-11-30T15:41:57;31.83;;;19.07;;
47383;SDS011;33129;52.232;5.192;2022-11-30T15:49:14;28.47;;;17.13;;
47383;SDS011;33129;52.232;5.192;2022-11-30T15:52:58;29.17;;;17.80;;
47383;SDS011;33129;52.232;5.192;2022-11-30T15:59:26;29.77;;;17.43;;
47383;SDS011;33129;52.232;5.192;2022-11-30T16:01:56;31.80;;;18.90;;
47383;SDS011;33129;52.232;5.192;2022-11-30T16:05:04;28.60;;;17.70;;
47383;SDS011;33129;52.232;5.192;2022-11-30T16:07:29;29.70;;;17.00;;
47383;SDS011;33129;52.232;5.192;2022-11-30T16:10:32;31.57;;;18.27;;
47383;SDS011;33129;52.232;5.192;2022-11-30T16:13:00;29.53;;;17.57;;
47383;SDS011;33129;52.232;5.192;2022-11-30T16:15:31;31.63;;;19.53;;
47383;SDS011;33129;52.232;5.192;2022-11-30T16:18:22;29.40;;;18.00;;
47383;SDS011;33129;52.232;5.192;2022-11-30T16:20:52;27.87;;;17.50;;
47383;SDS011;33129;52.232;5.192;2022-11-30T16:23:21;59.43;;;36.17;;
47383;SDS011;33129;52.232;5.192;2022-11-30T16:25:48;35.40;;;21.40;;
47383;SDS011;33129;52.232;5.192;2022-11-30T16:28:15;35.27;;;19.57;;
47383;SDS011;33129;52.232;5.192;2022-11-30T16:30:42;32.97;;;18.37;;
47383;SDS011;33129;52.232;5.192;2022-11-30T16:33:14;41.93;;;26.23;;
47383;SDS011;33129;52.232;5.192;2022-11-30T16:38:22;32.27;;;19.47;;
47383;SDS011;33129;52.232;5.192;2022-11-30T16:40:49;33.23;;;19.90;;
47383;SDS011;33129;52.232;5.192;2022-11-30T16:43:16;32.10;;;19.93;;
47383;SDS011;33129;52.232;5.192;2022-11-30T16:45:42;38.97;;;21.10;;
47383;SDS011;33129;52.232;5.192;2022-11-30T16:48:10;33.37;;;20.10;;
47383;SDS011;33129;52.232;5.192;2022-11-30T16:50:35;36.73;;;22.53;;
47383;SDS011;33129;52.232;5.192;2022-11-30T16:53:01;34.50;;;20.73;;
47383;SDS011;33129;52.232;5.192;2022-11-30T16:55:30;34.20;;;21.00;;
47383;SDS011;33129;52.232;5.192;2022-11-30T16:58:04;38.83;;;23.67;;
47383;SDS011;33129;52.232;5.192;2022-11-30T17:00:31;35.40;;;22.73;;
47383;SDS011;33129;52.232;5.192;2022-11-30T17:02:58;35.93;;;22.33;;
47383;SDS011;33129;52.232;5.192;2022-11-30T17:05:52;36.80;;;22.50;;
47383;SDS011;33129;52.232;5.192;2022-11-30T17:09:00;34.97;;;21.20;;
47383;SDS011;33129;52.232;5.192;2022-11-30T17:11:50;33.50;;;20.50;;
47383;SDS011;33129;52.232;5.192;2022-11-30T17:15:15;35.75;;;20.88;;
47383;SDS011;33129;52.232;5.192;2022-11-30T17:18:36;33.63;;;19.87;;
47383;SDS011;33129;52.232;5.192;2022-11-30T17:21:54;34.70;;;19.93;;
47383;SDS011;33129;52.232;5.192;2022-11-30T17:25:14;33.07;;;20.67;;
47383;SDS011;33129;52.232;5.192;2022-11-30T17:28:27;34.50;;;19.40;;
47383;SDS011;33129;52.232;5.192;2022-11-30T17:31:28;35.65;;;21.02;;
47383;SDS011;33129;52.232;5.192;2022-11-30T17:34:46;35.63;;;20.57;;
47383;SDS011;33129;52.232;5.192;2022-11-30T17:37:52;40.30;;;22.83;;
47383;SDS011;33129;52.232;5.192;2022-11-30T17:41:19;38.20;;;23.83;;
47383;SDS011;33129;52.232;5.192;2022-11-30T17:44:37;35.97;;;23.10;;
47383;SDS011;33129;52.232;5.192;2022-11-30T17:47:49;40.07;;;24.60;;
47383;SDS011;33129;52.232;5.192;2022-11-30T17:51:06;44.30;;;26.57;;
47383;SDS011;33129;52.232;5.192;2022-11-30T17:54:25;44.60;;;26.03;;
47383;SDS011;33129;52.232;5.192;2022-11-30T17:57:43;43.87;;;25.47;;
47383;SDS011;33129;52.232;5.192;2022-11-30T18:01:05;37.50;;;22.47;;
47383;SDS011;33129;52.232;5.192;2022-11-30T18:04:24;39.87;;;23.57;;
47383;SDS011;33129;52.232;5.192;2022-11-30T18:07:43;39.03;;;22.77;;
47383;SDS011;33129;52.232;5.192;2022-11-30T18:11:07;40.90;;;24.37;;
47383;SDS011;33129;52.232;5.192;2022-11-30T18:14:26;43.07;;;24.13;;
47383;SDS011;33129;52.232;5.192;2022-11-30T18:17:44;46.17;;;27.30;;
47383;SDS011;33129;52.232;5.192;2022-11-30T18:21:06;45.70;;;28.33;;
47383;SDS011;33129;52.232;5.192;2022-11-30T18:24:26;62.43;;;35.43;;
47383;SDS011;33129;52.232;5.192;2022-11-30T18:27:44;55.37;;;33.83;;
47383;SDS011;33129;52.232;5.192;2022-11-30T18:31:03;48.57;;;30.20;;
47383;SDS011;33129;52.232;5.192;2022-11-30T18:34:20;44.90;;;26.90;;
47383;SDS011;33129;52.232;5.192;2022-11-30T18:37:38;44.30;;;27.27;;
47383;SDS011;33129;52.232;5.192;2022-11-30T18:40:57;39.90;;;26.10;;
47383;SDS011;33129;52.232;5.192;2022-11-30T18:44:15;41.17;;;24.33;;
47383;SDS011;33129;52.232;5.192;2022-11-30T18:47:34;49.53;;;32.93;;
47383;SDS011;33129;52.232;5.192;2022-11-30T18:50:52;42.70;;;25.47;;
47383;SDS011;33129;52.232;5.192;2022-11-30T18:54:10;45.13;;;27.03;;
47383;SDS011;33129;52.232;5.192;2022-11-30T18:57:28;48.03;;;28.57;;
47383;SDS011;33129;52.232;5.192;2022-11-30T19:00:47;49.67;;;28.87;;
47383;SDS011;33129;52.232;5.192;2022-11-30T19:04:06;46.07;;;26.63;;
47383;SDS011;33129;52.232;5.192;2022-11-30T19:07:25;42.40;;;24.65;;
47383;SDS011;33129;52.232;5.192;2022-11-30T19:10:43;40.97;;;24.17;;
47383;SDS011;33129;52.232;5.192;2022-11-30T19:14:02;47.30;;;26.27;;
47383;SDS011;33129;52.232;5.192;2022-11-30T19:17:21;46.87;;;27.27;;
47383;SDS011;33129;52.232;5.192;2022-11-30T19:20:39;42.70;;;25.43;;
47383;SDS011;33129;52.232;5.192;2022-11-30T19:23:58;43.80;;;25.50;;
47383;SDS011;33129;52.232;5.192;2022-11-30T19:27:16;40.93;;;23.77;;
47383;SDS011;33129;52.232;5.192;2022-11-30T19:30:36;40.73;;;24.47;;
47383;SDS011;33129;52.232;5.192;2022-11-30T19:33:55;40.60;;;23.90;;
47383;SDS011;33129;52.232;5.192;2022-11-30T19:37:14;43.03;;;25.07;;
47383;SDS011;33129;52.232;5.192;2022-11-30T19:40:32;41.60;;;24.10;;
47383;SDS011;33129;52.232;5.192;2022-11-30T19:43:54;42.33;;;25.13;;
47383;SDS011;33129;52.232;5.192;2022-11-30T19:47:17;42.93;;;26.33;;
47383;SDS011;33129;52.232;5.192;2022-11-30T19:50:35;43.70;;;25.23;;
47383;SDS011;33129;52.232;5.192;2022-11-30T19:53:54;41.37;;;26.00;;
47383;SDS011;33129;52.232;5.192;2022-11-30T19:57:13;43.37;;;25.47;;
47383;SDS011;33129;52.232;5.192;2022-11-30T20:00:31;45.73;;;27.50;;
47383;SDS011;33129;52.232;5.192;2022-11-30T20:03:50;45.23;;;27.30;;
47383;SDS011;33129;52.232;5.192;2022-11-30T20:07:10;49.45;;;28.05;;
47383;SDS011;33129;52.232;5.192;2022-11-30T20:10:32;45.83;;;26.37;;
47383;SDS011;33129;52.232;5.192;2022-11-30T20:13:50;47.50;;;28.35;;
47383;SDS011;33129;52.232;5.192;2022-11-30T20:17:09;47.17;;;27.07;;
47383;SDS011;33129;52.232;5.192;2022-11-30T20:20:31;51.03;;;27.58;;
47383;SDS011;33129;52.232;5.192;2022-11-30T20:23:50;52.10;;;29.17;;
47383;SDS011;33129;52.232;5.192;2022-11-30T20:27:10;48.63;;;28.60;;
47383;SDS011;33129;52.232;5.192;2022-11-30T20:30:32;47.97;;;27.70;;
47383;SDS011;33129;52.232;5.192;2022-11-30T20:33:51;48.23;;;28.03;;
47383;SDS011;33129;52.232;5.192;2022-11-30T20:37:12;47.13;;;27.52;;
47383;SDS011;33129;52.232;5.192;2022-11-30T20:40:30;49.63;;;28.93;;
47383;SDS011;33129;52.232;5.192;2022-11-30T20:43:49;43.93;;;26.90;;
47383;SDS011;33129;52.232;5.192;2022-11-30T20:47:08;45.77;;;26.30;;
47383;SDS011;33129;52.232;5.192;2022-11-30T20:50:26;43.20;;;25.00;;
47383;SDS011;33129;52.232;5.192;2022-11-30T20:53:48;49.33;;;27.97;;
47383;SDS011;33129;52.232;5.192;2022-11-30T20:57:11;49.80;;;26.13;;
47383;SDS011;33129;52.232;5.192;2022-11-30T21:00:30;47.97;;;27.10;;
47383;SDS011;33129;52.232;5.192;2022-11-30T21:03:50;55.07;;;29.33;;
47383;SDS011;33129;52.232;5.192;2022-11-30T21:07:11;57.30;;;31.10;;